Time;durP1;ratioP1;P1;durP2;ratioP2;P2;SDS_P1;SDS_P2;PMS_P1;PMS_P2;Temp;Humidity;BMP_temperature;BMP_pressure;BME280_temperature;BME280_humidity;BME280_pressure;Samples;Min_cycle;Max_cycle;Signal;HPM_P1;HPM_P2
2023/03/23 00:01:55;;;;;;;13.25;1.85;;;;;;;;;;5095664;28;20377;-55
2023/03/23 00:04:21;;;;;;;17.15;3.15;;;;;;;;;;5096036;28;20031;-51
2023/03/23 00:06:46;;;;;;;6.10;1.10;;;;;;;;;;5096191;28;20460;-55
2023/03/23 00:09:14;;;;;;;4.80;0.93;;;;;;;;;;5096131;28;20074;-55
2023/03/23 00:11:40;;;;;;;19.38;1.73;;;;;;;;;;5096374;28;20039;-55
2023/03/23 00:14:12;;;;;;;8.13;1.30;;;;;;;;;;5095845;28;20130;-50
2023/03/23 00:16:40;;;;;;;10.65;1.77;;;;;;;;;;5095781;28;20047;-50
2023/03/23 00:19:07;;;;;;;13.57;1.70;;;;;;;;;;5094309;28;20163;-50
2023/03/23 00:21:34;;;;;;;9.20;2.83;;;;;;;;;;5095087;28;20028;-50
2023/03/23 00:24:08;;;;;;;6.28;1.52;;;;;;;;;;5095947;28;20020;-50
2023/03/23 00:26:34;;;;;;;9.63;2.10;;;;;;;;;;5095791;28;20050;-49
2023/03/23 00:29:01;;;;;;;7.00;1.73;;;;;;;;;;5094284;28;20503;-52
2023/03/23 00:31:34;;;;;;;9.63;2.35;;;;;;;;;;5096051;28;20058;-50
2023/03/23 00:34:01;;;;;;;10.48;2.42;;;;;;;;;;5095363;28;20016;-50
2023/03/23 00:36:27;;;;;;;10.68;1.17;;;;;;;;;;5096395;28;20032;-54
2023/03/23 00:38:52;;;;;;;14.32;2.00;;;;;;;;;;5095844;28;20523;-51
2023/03/23 00:41:18;;;;;;;8.90;1.38;;;;;;;;;;5094506;28;20061;-51
2023/03/23 00:43:43;;;;;;;6.97;2.40;;;;;;;;;;5095398;28;20069;-56
2023/03/23 00:46:09;;;;;;;13.13;2.00;;;;;;;;;;5096253;28;20036;-55
2023/03/23 00:48:35;;;;;;;4.10;1.00;;;;;;;;;;5095579;28;20034;-50
2023/03/23 00:51:05;;;;;;;16.65;1.92;;;;;;;;;;5095981;28;20024;-53
2023/03/23 00:53:31;;;;;;;11.52;1.48;;;;;;;;;;5097520;28;20016;-50
2023/03/23 00:55:57;;;;;;;7.88;1.45;;;;;;;;;;5097623;28;20020;-50
2023/03/23 00:58:22;;;;;;;5.28;1.38;;;;;;;;;;5094812;28;20020;-51
2023/03/23 01:00:47;;;;;;;5.10;0.68;;;;;;;;;;5093496;28;20396;-50
2023/03/23 01:03:17;;;;;;;14.60;3.35;;;;;;;;;;5093523;28;20027;-50
2023/03/23 01:05:43;;;;;;;6.97;1.17;;;;;;;;;;5095202;28;20081;-52
2023/03/23 01:08:10;;;;;;;10.40;1.70;;;;;;;;;;5093498;28;20032;-51
2023/03/23 01:10:38;;;;;;;18.13;2.70;;;;;;;;;;5094470;28;20468;-51
2023/03/23 01:13:04;;;;;;;8.40;1.65;;;;;;;;;;5094659;28;20031;-51
2023/03/23 01:15:30;;;;;;;4.90;1.15;;;;;;;;;;5093422;28;20024;-49
2023/03/23 01:17:56;;;;;;;14.02;1.98;;;;;;;;;;5094481;28;20447;-57
2023/03/23 01:20:21;;;;;;;5.45;1.65;;;;;;;;;;5092952;28;20048;-54
2023/03/23 01:22:47;;;;;;;7.57;1.48;;;;;;;;;;5093047;28;20016;-50
2023/03/23 01:25:13;;;;;;;12.93;3.17;;;;;;;;;;5094067;28;20027;-50
2023/03/23 01:27:39;;;;;;;20.58;3.17;;;;;;;;;;5094245;28;20415;-50
2023/03/23 01:30:05;;;;;;;9.02;2.17;;;;;;;;;;5094561;28;20023;-50
2023/03/23 01:32:31;;;;;;;7.20;1.25;;;;;;;;;;5093065;28;20058;-50
2023/03/23 01:34:56;;;;;;;23.17;4.55;;;;;;;;;;5094295;28;20016;-50
2023/03/23 01:37:25;;;;;;;9.30;2.25;;;;;;;;;;5094085;28;20012;-50
2023/03/23 01:39:52;;;;;;;11.57;2.30;;;;;;;;;;5093995;28;20024;-51
2023/03/23 01:42:17;;;;;;;12.00;1.63;;;;;;;;;;5094158;28;20032;-50
2023/03/23 01:44:46;;;;;;;7.25;1.80;;;;;;;;;;5095020;28;20457;-51
2023/03/23 01:47:12;;;;;;;17.08;2.25;;;;;;;;;;5092850;28;20028;-50
2023/03/23 01:49:42;;;;;;;11.68;1.75;;;;;;;;;;5095769;28;20467;-52
2023/03/23 01:52:11;;;;;;;16.48;3.75;;;;;;;;;;5095792;28;20023;-54
2023/03/23 01:54:38;;;;;;;8.45;1.90;;;;;;;;;;5094145;28;20372;-50
2023/03/23 01:57:07;;;;;;;14.18;2.60;;;;;;;;;;5094156;28;20031;-50
2023/03/23 01:59:34;;;;;;;14.20;2.78;;;;;;;;;;5094062;28;20238;-51
2023/03/23 02:02:00;;;;;;;8.65;1.25;;;;;;;;;;5094082;28;20032;-50
2023/03/23 02:04:27;;;;;;;14.68;2.55;;;;;;;;;;5093317;28;20510;-50
2023/03/23 02:06:52;;;;;;;8.63;1.38;;;;;;;;;;5095410;28;20065;-63
2023/03/23 02:09:18;;;;;;;15.00;2.55;;;;;;;;;;5096183;28;20095;-50
2023/03/23 02:11:44;;;;;;;14.82;2.45;;;;;;;;;;5096297;28;20016;-52
2023/03/23 02:14:10;;;;;;;17.95;2.92;;;;;;;;;;5095783;28;20099;-50
2023/03/23 02:16:43;;;;;;;9.00;2.15;;;;;;;;;;5093664;28;20019;-49
2023/03/23 02:19:27;;;;;;;13.52;2.10;;;;;;;;;;5086690;28;20057;-50
2023/03/23 02:22:12;;;;;;;12.88;2.72;;;;;;;;;;5073070;28;20079;-50
2023/03/23 02:24:53;;;;;;;13.07;2.50;;;;;;;;;;5073313;28;20464;-49
2023/03/23 02:27:31;;;;;;;10.35;2.45;;;;;;;;;;5055113;28;20031;-50
2023/03/23 02:30:03;;;;;;;16.25;3.03;;;;;;;;;;5073066;28;20046;-51
2023/03/23 02:32:50;;;;;;;14.73;2.28;;;;;;;;;;5073127;28;20021;-53
2023/03/23 02:35:15;;;;;;;17.65;2.95;;;;;;;;;;5055534;28;20115;-51
2023/03/23 02:37:47;;;;;;;26.85;3.47;;;;;;;;;;5073970;28;20059;-54
2023/03/23 02:40:17;;;;;;;18.80;3.40;;;;;;;;;;5054931;28;20078;-51
2023/03/23 02:42:45;;;;;;;10.73;2.03;;;;;;;;;;5073022;28;20021;-55
2023/03/23 02:45:12;;;;;;;15.88;2.45;;;;;;;;;;5054909;28;20500;-51
2023/03/23 02:47:38;;;;;;;14.73;3.22;;;;;;;;;;5054939;28;20021;-51
2023/03/23 02:50:05;;;;;;;14.10;2.13;;;;;;;;;;5073026;28;20021;-51
2023/03/23 02:52:31;;;;;;;17.10;3.35;;;;;;;;;;5054587;28;20358;-51
2023/03/23 02:54:59;;;;;;;13.80;3.13;;;;;;;;;;5055024;28;20167;-51
2023/03/23 02:57:25;;;;;;;15.98;3.22;;;;;;;;;;5073357;28;20107;-51
2023/03/23 02:59:51;;;;;;;19.67;3.33;;;;;;;;;;5072846;28;20493;-51
2023/03/23 03:02:36;;;;;;;16.35;2.22;;;;;;;;;;5072934;28;20029;-50
2023/03/23 03:05:09;;;;;;;11.57;1.77;;;;;;;;;;5072441;28;20017;-51
2023/03/23 03:07:40;;;;;;;17.38;2.10;;;;;;;;;;5072895;28;20036;-50
2023/03/23 03:10:12;;;;;;;12.57;3.30;;;;;;;;;;5057191;28;20055;-50
2023/03/23 03:12:46;;;;;;;15.00;2.97;;;;;;;;;;5077267;28;20035;-49
2023/03/23 03:15:11;;;;;;;19.15;3.20;;;;;;;;;;5059112;28;20031;-50
2023/03/23 03:17:43;;;;;;;17.55;2.45;;;;;;;;;;5059221;28;20029;-51
2023/03/23 03:20:13;;;;;;;16.65;2.25;;;;;;;;;;5077543;28;20446;-50
2023/03/23 03:22:43;;;;;;;13.82;2.22;;;;;;;;;;5058818;28;20047;-49
2023/03/23 03:25:13;;;;;;;12.07;2.75;;;;;;;;;;5058321;28;20075;-49
2023/03/23 03:27:40;;;;;;;21.15;3.60;;;;;;;;;;5075900;28;20020;-49
2023/03/23 03:30:08;;;;;;;22.20;2.13;;;;;;;;;;5076546;28;20023;-50
2023/03/23 03:32:43;;;;;;;12.02;2.17;;;;;;;;;;5060984;28;20047;-63
2023/03/23 03:35:09;;;;;;;16.25;3.75;;;;;;;;;;5058100;28;20021;-54
2023/03/23 03:37:37;;;;;;;16.58;2.92;;;;;;;;;;5058408;28;20523;-51
2023/03/23 03:40:10;;;;;;;21.60;3.67;;;;;;;;;;5057982;28;20017;-49
2023/03/23 03:42:37;;;;;;;19.50;4.03;;;;;;;;;;5075774;28;20385;-49
2023/03/23 03:45:03;;;;;;;5.75;1.90;;;;;;;;;;5075952;28;20029;-50
2023/03/23 03:47:28;;;;;;;19.00;3.10;;;;;;;;;;5058298;28;20082;-50
2023/03/23 03:49:54;;;;;;;12.65;2.95;;;;;;;;;;5076439;28;20028;-52
2023/03/23 03:52:19;;;;;;;9.95;2.70;;;;;;;;;;5077254;28;20017;-50
2023/03/23 03:54:45;;;;;;;16.10;2.35;;;;;;;;;;5076678;28;20017;-50
2023/03/23 03:57:11;;;;;;;15.50;2.58;;;;;;;;;;5075897;28;20020;-54
2023/03/23 03:59:37;;;;;;;15.40;2.58;;;;;;;;;;5058571;28;20024;-54
2023/03/23 04:02:03;;;;;;;14.05;2.78;;;;;;;;;;5058729;28;20029;-50
2023/03/23 04:04:29;;;;;;;10.15;2.47;;;;;;;;;;5077449;28;20104;-49
2023/03/23 04:06:54;;;;;;;15.95;2.83;;;;;;;;;;5077152;28;20044;-50
2023/03/23 04:09:21;;;;;;;15.65;2.05;;;;;;;;;;5059113;28;20536;-57
2023/03/23 04:11:46;;;;;;;15.68;3.38;;;;;;;;;;5076985;28;20008;-55
2023/03/23 04:14:12;;;;;;;10.38;2.47;;;;;;;;;;5077214;28;20100;-55
2023/03/23 04:16:37;;;;;;;17.63;3.22;;;;;;;;;;5075473;28;20024;-50
2023/03/23 04:19:03;;;;;;;24.95;3.72;;;;;;;;;;5066230;28;20062;-50
2023/03/23 04:21:29;;;;;;;18.55;2.58;;;;;;;;;;5094560;28;20032;-50
2023/03/23 04:23:59;;;;;;;8.77;1.73;;;;;;;;;;5094335;28;20108;-50
2023/03/23 04:26:30;;;;;;;18.95;2.97;;;;;;;;;;5096158;28;20064;-50
2023/03/23 04:28:56;;;;;;;26.35;3.97;;;;;;;;;;5095353;28;20074;-51
2023/03/23 04:31:24;;;;;;;18.55;2.83;;;;;;;;;;5095908;28;20472;-49
2023/03/23 04:33:52;;;;;;;11.32;2.22;;;;;;;;;;5095976;28;20013;-49
2023/03/23 04:36:18;;;;;;;15.27;3.30;;;;;;;;;;5095395;28;20020;-51
2023/03/23 04:38:43;;;;;;;19.48;2.67;;;;;;;;;;5095336;28;20604;-50
2023/03/23 04:41:08;;;;;;;13.70;2.40;;;;;;;;;;5093441;28;20119;-50
2023/03/23 04:43:41;;;;;;;18.88;2.80;;;;;;;;;;5095615;28;20093;-50
2023/03/23 04:46:08;;;;;;;19.83;1.88;;;;;;;;;;5093812;28;20048;-50
2023/03/23 04:48:34;;;;;;;17.23;3.03;;;;;;;;;;5095255;28;20026;-50
2023/03/23 04:51:03;;;;;;;16.83;4.15;;;;;;;;;;5095044;28;20107;-49
2023/03/23 04:53:30;;;;;;;12.30;2.40;;;;;;;;;;5095298;28;20065;-50
2023/03/23 04:55:55;;;;;;;22.48;3.20;;;;;;;;;;5094127;28;20081;-50
2023/03/23 04:58:23;;;;;;;11.50;2.75;;;;;;;;;;5094380;28;20032;-51
2023/03/23 05:00:49;;;;;;;13.05;2.13;;;;;;;;;;5095084;28;20552;-50
2023/03/23 05:03:18;;;;;;;14.65;2.40;;;;;;;;;;5093890;28;20028;-50
2023/03/23 05:05:46;;;;;;;17.50;2.20;;;;;;;;;;5093151;28;20053;-51
2023/03/23 05:08:15;;;;;;;19.45;2.55;;;;;;;;;;5093063;28;20027;-49
2023/03/23 05:10:40;;;;;;;14.68;2.08;;;;;;;;;;5093591;28;20067;-50
2023/03/23 05:13:06;;;;;;;8.63;2.70;;;;;;;;;;5094392;28;20493;-50
2023/03/23 05:15:31;;;;;;;22.38;3.45;;;;;;;;;;5093729;28;20488;-50
2023/03/23 05:17:57;;;;;;;19.75;2.88;;;;;;;;;;5093240;28;20016;-49
2023/03/23 05:20:22;;;;;;;21.15;4.70;;;;;;;;;;5093531;28;20082;-51
2023/03/23 05:22:49;;;;;;;9.63;2.17;;;;;;;;;;5095555;28;20393;-49
2023/03/23 05:25:15;;;;;;;9.20;1.40;;;;;;;;;;5093365;28;20021;-49
2023/03/23 05:27:47;;;;;;;10.60;2.05;;;;;;;;;;5092860;28;20107;-49
2023/03/23 05:30:16;;;;;;;17.95;3.08;;;;;;;;;;5094261;28;20020;-50
2023/03/23 05:32:42;;;;;;;12.48;2.05;;;;;;;;;;5092708;28;20084;-50
2023/03/23 05:35:07;;;;;;;24.67;2.97;;;;;;;;;;5094158;28;20059;-50
2023/03/23 05:37:33;;;;;;;19.38;2.35;;;;;;;;;;5093883;28;20016;-50
2023/03/23 05:40:04;;;;;;;12.48;2.17;;;;;;;;;;5093895;28;20411;-49
2023/03/23 05:42:30;;;;;;;9.85;1.77;;;;;;;;;;5092521;28;20032;-50
2023/03/23 05:44:56;;;;;;;16.23;3.17;;;;;;;;;;5094021;28;20080;-52
2023/03/23 05:47:21;;;;;;;21.80;2.85;;;;;;;;;;5095867;28;20016;-53
2023/03/23 05:49:48;;;;;;;21.85;2.75;;;;;;;;;;5095783;28;20035;-51
2023/03/23 05:52:14;;;;;;;16.45;3.40;;;;;;;;;;5093848;28;20020;-53
2023/03/23 05:54:41;;;;;;;18.45;3.03;;;;;;;;;;5092991;28;20020;-53
2023/03/23 05:57:06;;;;;;;15.20;2.60;;;;;;;;;;5093699;28;20480;-50
2023/03/23 05:59:33;;;;;;;15.55;2.00;;;;;;;;;;5091871;28;20054;-49
2023/03/23 06:01:58;;;;;;;17.33;2.78;;;;;;;;;;5093269;28;20119;-50
2023/03/23 06:04:24;;;;;;;26.20;3.67;;;;;;;;;;5092610;28;20051;-56
2023/03/23 06:06:51;;;;;;;22.83;5.57;;;;;;;;;;5096219;28;20061;-53
2023/03/23 06:09:17;;;;;;;17.45;3.70;;;;;;;;;;5095665;28;20489;-51
2023/03/23 06:11:43;;;;;;;16.83;3.00;;;;;;;;;;5094611;28;20077;-49
2023/03/23 06:14:08;;;;;;;13.65;2.88;;;;;;;;;;5092383;28;20016;-51
2023/03/23 06:16:33;;;;;;;10.55;1.90;;;;;;;;;;5092728;28;20020;-51
2023/03/23 06:19:00;;;;;;;16.33;2.35;;;;;;;;;;5087744;28;20074;-52
2023/03/23 06:21:26;;;;;;;26.67;4.93;;;;;;;;;;5054638;28;20481;-51
2023/03/23 06:23:51;;;;;;;16.67;2.58;;;;;;;;;;5055092;28;20023;-51
2023/03/23 06:26:18;;;;;;;18.33;3.33;;;;;;;;;;5073462;28;20095;-52
2023/03/23 06:28:44;;;;;;;18.42;3.47;;;;;;;;;;5072737;28;20032;-50
2023/03/23 06:31:09;;;;;;;13.00;2.50;;;;;;;;;;5054646;28;20092;-52
2023/03/23 06:33:35;;;;;;;24.10;3.25;;;;;;;;;;5072268;28;20024;-50
2023/03/23 06:36:01;;;;;;;20.10;3.58;;;;;;;;;;5054934;28;20488;-52
2023/03/23 06:38:27;;;;;;;23.70;2.40;;;;;;;;;;5072329;28;20024;-51
2023/03/23 06:40:53;;;;;;;16.33;3.20;;;;;;;;;;5072318;28;20024;-52
2023/03/23 06:43:19;;;;;;;14.13;2.67;;;;;;;;;;5071965;28;20028;-50
2023/03/23 06:45:45;;;;;;;17.48;3.67;;;;;;;;;;5071523;28;20044;-55
2023/03/23 06:48:10;;;;;;;20.52;2.72;;;;;;;;;;5054042;28;20021;-51
2023/03/23 06:50:36;;;;;;;14.50;2.88;;;;;;;;;;5054219;28;20032;-53
2023/03/23 06:53:01;;;;;;;24.50;4.32;;;;;;;;;;5072118;28;20021;-51
2023/03/23 06:55:27;;;;;;;17.67;3.55;;;;;;;;;;5071968;28;20400;-53
2023/03/23 06:57:52;;;;;;;16.05;2.67;;;;;;;;;;5071367;28;20357;-51
2023/03/23 07:00:18;;;;;;;17.23;2.92;;;;;;;;;;5053684;28;20470;-53
2023/03/23 07:02:44;;;;;;;14.32;2.85;;;;;;;;;;5053898;28;20037;-52
2023/03/23 07:05:10;;;;;;;10.68;2.88;;;;;;;;;;5072506;28;20394;-52
2023/03/23 07:07:37;;;;;;;9.52;2.70;;;;;;;;;;5072436;28;20469;-51
2023/03/23 07:10:03;;;;;;;15.32;3.45;;;;;;;;;;5072453;28;20078;-52
2023/03/23 07:12:29;;;;;;;23.83;4.00;;;;;;;;;;5070933;28;20464;-53
2023/03/23 07:14:55;;;;;;;11.38;2.63;;;;;;;;;;5072153;28;20013;-51
2023/03/23 07:17:20;;;;;;;19.25;3.38;;;;;;;;;;5071607;28;20012;-52
2023/03/23 07:19:47;;;;;;;36.60;3.00;;;;;;;;;;5071074;28;20110;-51
2023/03/23 07:22:12;;;;;;;24.35;3.03;;;;;;;;;;5053432;28;20460;-51
2023/03/23 07:24:38;;;;;;;11.48;2.20;;;;;;;;;;5053341;28;20119;-52
2023/03/23 07:27:03;;;;;;;18.48;3.25;;;;;;;;;;5052507;28;20102;-54
2023/03/23 07:29:29;;;;;;;18.77;2.35;;;;;;;;;;5070753;28;20021;-53
2023/03/23 07:31:55;;;;;;;17.65;2.70;;;;;;;;;;5071145;28;20012;-52
2023/03/23 07:34:20;;;;;;;16.52;2.88;;;;;;;;;;5071046;28;20016;-52
2023/03/23 07:36:46;;;;;;;10.85;2.58;;;;;;;;;;5071098;28;20529;-51
2023/03/23 07:39:12;;;;;;;13.98;2.50;;;;;;;;;;5070992;28;20477;-52
2023/03/23 07:41:38;;;;;;;20.95;2.45;;;;;;;;;;5053362;28;20067;-53
2023/03/23 07:44:05;;;;;;;20.02;3.20;;;;;;;;;;5071720;28;20047;-52
2023/03/23 07:46:31;;;;;;;12.18;2.15;;;;;;;;;;5071144;28;20036;-53
2023/03/23 07:48:56;;;;;;;16.58;2.90;;;;;;;;;;5052832;28;20051;-54
2023/03/23 07:51:22;;;;;;;17.10;3.08;;;;;;;;;;5071426;28;20009;-51
2023/03/23 07:53:48;;;;;;;13.20;2.58;;;;;;;;;;5071532;28;20021;-51
2023/03/23 07:56:14;;;;;;;29.23;4.65;;;;;;;;;;5071302;28;20031;-52
2023/03/23 07:58:44;;;;;;;15.82;3.45;;;;;;;;;;5074571;28;20021;-52
2023/03/23 08:01:09;;;;;;;16.60;2.97;;;;;;;;;;5073994;28;20534;-51
2023/03/23 08:03:35;;;;;;;29.75;3.20;;;;;;;;;;5056851;28;20028;-51
2023/03/23 08:06:00;;;;;;;17.40;2.85;;;;;;;;;;5055752;28;20020;-53
2023/03/23 08:08:26;;;;;;;28.35;3.60;;;;;;;;;;5074151;28;20453;-53
2023/03/23 08:10:52;;;;;;;16.15;3.10;;;;;;;;;;5073909;28;20016;-52
2023/03/23 08:13:18;;;;;;;34.55;4.38;;;;;;;;;;5073774;28;20016;-53
2023/03/23 08:15:44;;;;;;;15.38;3.08;;;;;;;;;;5073841;28;20021;-52
2023/03/23 08:18:10;;;;;;;14.77;2.88;;;;;;;;;;5074556;28;20515;-53
2023/03/23 08:20:36;;;;;;;15.15;4.15;;;;;;;;;;5074405;28;20131;-53
2023/03/23 08:23:02;;;;;;;20.63;3.08;;;;;;;;;;5074510;28;20055;-52
2023/03/23 08:25:29;;;;;;;21.05;3.75;;;;;;;;;;5074373;28;20056;-56
2023/03/23 08:27:54;;;;;;;27.85;4.18;;;;;;;;;;5055781;28;20021;-53
2023/03/23 08:30:22;;;;;;;16.77;3.15;;;;;;;;;;5055694;28;20107;-52
2023/03/23 08:32:48;;;;;;;27.75;5.57;;;;;;;;;;5055791;28;20104;-52
2023/03/23 08:35:15;;;;;;;14.70;2.10;;;;;;;;;;5055565;28;20135;-53
2023/03/23 08:37:43;;;;;;;36.67;5.45;;;;;;;;;;5073464;28;20111;-54
2023/03/23 08:40:10;;;;;;;25.40;3.80;;;;;;;;;;5055755;28;20032;-54
2023/03/23 08:42:37;;;;;;;14.38;2.67;;;;;;;;;;5055188;28;20043;-54
2023/03/23 08:45:03;;;;;;;20.65;4.40;;;;;;;;;;5072896;28;20027;-54
2023/03/23 08:47:29;;;;;;;21.05;4.57;;;;;;;;;;5055435;28;20016;-53
2023/03/23 08:49:54;;;;;;;28.17;4.50;;;;;;;;;;5073488;28;20119;-53
2023/03/23 08:52:20;;;;;;;17.33;3.33;;;;;;;;;;5073483;28;20116;-53
2023/03/23 08:54:47;;;;;;;38.25;5.43;;;;;;;;;;5055554;28;20035;-51
2023/03/23 08:57:14;;;;;;;20.38;3.40;;;;;;;;;;5055456;28;20021;-52
2023/03/23 08:59:41;;;;;;;13.30;2.72;;;;;;;;;;5055474;28;20020;-52
2023/03/23 09:02:08;;;;;;;17.60;3.47;;;;;;;;;;5055685;28;20138;-53
2023/03/23 09:04:34;;;;;;;28.92;4.90;;;;;;;;;;5073370;28;20020;-53
2023/03/23 09:07:00;;;;;;;16.00;3.45;;;;;;;;;;5054871;28;20031;-53
2023/03/23 09:09:25;;;;;;;23.35;4.55;;;;;;;;;;5073158;28;20527;-53
2023/03/23 09:11:53;;;;;;;15.05;4.65;;;;;;;;;;5073059;28;20020;-53
2023/03/23 09:14:18;;;;;;;8.43;2.70;;;;;;;;;;5073410;28;20020;-52
2023/03/23 09:16:45;;;;;;;23.60;4.82;;;;;;;;;;5073119;28;20230;-55
2023/03/23 09:19:10;;;;;;;17.33;3.30;;;;;;;;;;5072741;28;20469;-53
2023/03/23 09:21:36;;;;;;;18.77;4.20;;;;;;;;;;5072839;28;20036;-53
2023/03/23 09:24:02;;;;;;;14.05;3.58;;;;;;;;;;5072648;28;20021;-53
2023/03/23 09:26:28;;;;;;;9.55;2.67;;;;;;;;;;5054529;28;20020;-54
2023/03/23 09:28:56;;;;;;;34.25;5.03;;;;;;;;;;5072834;28;20024;-53
2023/03/23 09:31:22;;;;;;;13.48;2.38;;;;;;;;;;5054610;28;20384;-54
2023/03/23 09:33:51;;;;;;;15.55;3.47;;;;;;;;;;5055208;28;20027;-53
2023/03/23 09:36:17;;;;;;;17.33;3.22;;;;;;;;;;5073239;28;20027;-54
2023/03/23 09:38:43;;;;;;;22.60;3.78;;;;;;;;;;5054762;28;20025;-54
2023/03/23 09:41:09;;;;;;;22.77;4.70;;;;;;;;;;5072323;28;20428;-51
2023/03/23 09:43:56;;;;;;;27.27;4.20;;;;;;;;;;5072868;28;20067;-53
2023/03/23 09:46:48;;;;;;;19.02;3.47;;;;;;;;;;5037632;28;20033;-54
2023/03/23 09:49:17;;;;;;;18.95;4.47;;;;;;;;;;5067068;28;20065;-55
2023/03/23 09:51:45;;;;;;;16.83;4.00;;;;;;;;;;5054533;28;20020;-53
2023/03/23 09:54:13;;;;;;;15.27;3.13;;;;;;;;;;5072333;28;20107;-53
2023/03/23 09:56:39;;;;;;;24.13;3.85;;;;;;;;;;5072261;28;20095;-54
2023/03/23 09:59:07;;;;;;;21.85;4.15;;;;;;;;;;5072433;28;20108;-54
2023/03/23 10:01:39;;;;;;;30.08;5.00;;;;;;;;;;5073104;28;20463;-53
2023/03/23 10:04:23;;;;;;;15.63;3.13;;;;;;;;;;5054139;28;20028;-53
2023/03/23 10:06:49;;;;;;;19.98;3.45;;;;;;;;;;5053944;28;20020;-54
2023/03/23 10:09:16;;;;;;;29.20;5.68;;;;;;;;;;5053964;28;20028;-55
2023/03/23 10:11:56;;;;;;;22.15;5.15;;;;;;;;;;5072032;28;20021;-55
2023/03/23 10:14:21;;;;;;;16.15;3.83;;;;;;;;;;5072024;28;20032;-53
2023/03/23 10:17:07;;;;;;;49.28;7.35;;;;;;;;;;5053839;28;20480;-54
2023/03/23 10:19:37;;;;;;;28.98;6.45;;;;;;;;;;5068948;28;20043;-55
2023/03/23 10:22:10;;;;;;;17.98;3.92;;;;;;;;;;5090432;28;20036;-53
2023/03/23 10:24:41;;;;;;;38.17;5.93;;;;;;;;;;5090408;28;20444;-55
2023/03/23 10:27:06;;;;;;;20.45;3.95;;;;;;;;;;5089557;28;20068;-55
2023/03/23 10:29:36;;;;;;;11.98;2.75;;;;;;;;;;5091620;28;20065;-53
2023/03/23 10:32:16;;;;;;;14.57;3.22;;;;;;;;;;5091862;28;20017;-55
2023/03/23 10:34:41;;;;;;;18.30;4.22;;;;;;;;;;5091557;28;20310;-54
2023/03/23 10:37:06;;;;;;;18.42;4.63;;;;;;;;;;5089337;28;20073;-55
2023/03/23 10:39:38;;;;;;;22.20;6.50;;;;;;;;;;5090900;28;20027;-53
2023/03/23 10:42:06;;;;;;;16.80;4.35;;;;;;;;;;5090180;28;20393;-54
2023/03/23 10:44:33;;;;;;;51.35;7.70;;;;;;;;;;5091457;28;20032;-54
2023/03/23 10:47:00;;;;;;;26.98;4.68;;;;;;;;;;5090659;28;20491;-56
2023/03/23 10:49:28;;;;;;;18.52;4.32;;;;;;;;;;5090066;28;20102;-52
2023/03/23 10:52:14;;;;;;;23.88;4.10;;;;;;;;;;5091165;28;20024;-55
2023/03/23 10:54:46;;;;;;;31.30;5.78;;;;;;;;;;5072046;28;20032;-54
2023/03/23 10:57:12;;;;;;;14.10;3.28;;;;;;;;;;5091222;28;20021;-53
2023/03/23 10:59:40;;;;;;;18.80;3.33;;;;;;;;;;5090963;28;20021;-54
2023/03/23 11:02:14;;;;;;;19.52;5.85;;;;;;;;;;5089679;28;20036;-56
2023/03/23 11:04:40;;;;;;;46.10;10.40;;;;;;;;;;5089805;28;20056;-55
2023/03/23 11:07:12;;;;;;;28.30;5.45;;;;;;;;;;5090931;28;20085;-55
2023/03/23 11:09:39;;;;;;;17.85;3.78;;;;;;;;;;5090984;28;20141;-53
2023/03/23 11:12:16;;;;;;;16.95;3.72;;;;;;;;;;5089607;28;20040;-53
2023/03/23 11:14:42;;;;;;;20.42;5.55;;;;;;;;;;5090232;28;20024;-54
2023/03/23 11:17:20;;;;;;;22.98;3.53;;;;;;;;;;5091156;28;20028;-53
2023/03/23 11:19:46;;;;;;;29.13;4.50;;;;;;;;;;5089686;28;20084;-53
2023/03/23 11:22:31;;;;;;;26.10;3.58;;;;;;;;;;5091347;28;20421;-54
2023/03/23 11:25:00;;;;;;;24.33;4.15;;;;;;;;;;5091165;28;20102;-56
2023/03/23 11:27:27;;;;;;;38.92;5.55;;;;;;;;;;5089665;28;20020;-52
2023/03/23 11:29:59;;;;;;;31.05;4.70;;;;;;;;;;5091091;28;20020;-54
2023/03/23 11:32:27;;;;;;;31.48;4.82;;;;;;;;;;5094083;28;20038;-53
2023/03/23 11:35:00;;;;;;;23.98;3.90;;;;;;;;;;5093040;28;20112;-53
2023/03/23 11:37:26;;;;;;;30.92;4.53;;;;;;;;;;5093237;28;20024;-54
2023/03/23 11:39:54;;;;;;;21.52;4.00;;;;;;;;;;5094658;28;20104;-55
2023/03/23 11:42:27;;;;;;;19.63;3.13;;;;;;;;;;5093838;28;20435;-53
2023/03/23 11:44:53;;;;;;;23.30;3.30;;;;;;;;;;5092443;28;20020;-51
2023/03/23 11:47:24;;;;;;;16.83;3.88;;;;;;;;;;5092711;28;20034;-54
2023/03/23 11:49:50;;;;;;;31.88;3.72;;;;;;;;;;5094083;28;20020;-52
2023/03/23 11:52:34;;;;;;;11.77;2.97;;;;;;;;;;5094059;28;20063;-52
2023/03/23 11:55:04;;;;;;;21.23;4.45;;;;;;;;;;5094151;28;20051;-52
2023/03/23 11:57:30;;;;;;;17.95;3.80;;;;;;;;;;5094229;28;20031;-51
2023/03/23 12:00:00;;;;;;;20.67;3.72;;;;;;;;;;5094453;28;20065;-53
2023/03/23 12:02:36;;;;;;;28.05;3.78;;;;;;;;;;5093291;28;20032;-52
2023/03/23 12:05:02;;;;;;;23.88;3.63;;;;;;;;;;5092976;28;20047;-52
2023/03/23 12:07:31;;;;;;;26.58;3.63;;;;;;;;;;5093003;28;20461;-51
2023/03/23 12:09:57;;;;;;;25.15;3.85;;;;;;;;;;5094529;28;20070;-56
2023/03/23 12:12:26;;;;;;;26.10;3.55;;;;;;;;;;5094008;28;20093;-51
2023/03/23 12:15:10;;;;;;;16.80;3.08;;;;;;;;;;5094065;28;20477;-52
2023/03/23 12:17:41;;;;;;;13.88;2.80;;;;;;;;;;5093064;28;20441;-51
2023/03/23 12:20:10;;;;;;;31.13;4.80;;;;;;;;;;5092917;28;20052;-52
2023/03/23 12:22:44;;;;;;;21.33;3.65;;;;;;;;;;5094284;28;20106;-53
2023/03/23 12:25:10;;;;;;;25.70;4.07;;;;;;;;;;5094233;28;20028;-51
2023/03/23 12:27:41;;;;;;;24.45;3.97;;;;;;;;;;5094052;28;20410;-51
2023/03/23 12:30:15;;;;;;;24.95;3.35;;;;;;;;;;5094364;28;20027;-52
2023/03/23 12:33:01;;;;;;;22.98;4.38;;;;;;;;;;5094692;28;20469;-52
2023/03/23 12:35:30;;;;;;;31.45;4.47;;;;;;;;;;5093741;28;20070;-53
2023/03/23 12:38:14;;;;;;;21.45;4.38;;;;;;;;;;5092368;28;20028;-51
2023/03/23 12:40:43;;;;;;;20.20;3.50;;;;;;;;;;5092549;28;20030;-52
2023/03/23 12:43:22;;;;;;;50.83;5.65;;;;;;;;;;5093009;28;20035;-51
2023/03/23 12:46:03;;;;;;;29.73;4.57;;;;;;;;;;5092629;28;20023;-52
2023/03/23 12:48:39;;;;;;;20.98;4.13;;;;;;;;;;5093377;28;20034;-53
2023/03/23 12:51:11;;;;;;;16.40;3.65;;;;;;;;;;5091972;28;20487;-55
2023/03/23 12:53:40;;;;;;;14.85;2.97;;;;;;;;;;5093547;28;20031;-52
2023/03/23 12:56:13;;;;;;;24.27;3.50;;;;;;;;;;5093804;28;20024;-52
2023/03/23 12:58:42;;;;;;;19.35;3.20;;;;;;;;;;5092030;28;20024;-50
2023/03/23 13:01:11;;;;;;;32.38;6.90;;;;;;;;;;5091906;28;20135;-53
2023/03/23 13:03:44;;;;;;;24.77;4.20;;;;;;;;;;5092390;28;20461;-51
2023/03/23 13:06:32;;;;;;;38.38;5.03;;;;;;;;;;5093951;28;20073;-51
2023/03/23 13:09:16;;;;;;;51.80;4.97;;;;;;;;;;5093076;28;20396;-52
2023/03/23 13:11:46;;;;;;;28.60;3.85;;;;;;;;;;5091939;28;20051;-53
2023/03/23 13:14:31;;;;;;;16.88;2.78;;;;;;;;;;5091518;28;20111;-53
2023/03/23 13:16:57;;;;;;;;;;;;;;;;;;5091536;28;20471;-56
2023/03/23 13:19:26;;;;;;;22.58;4.50;;;;;;;;;;5084574;28;19916;-51
2023/03/23 13:21:52;;;;;;;41.83;4.78;;;;;;;;;;5072733;28;20032;-51
2023/03/23 13:24:22;;;;;;;18.63;3.03;;;;;;;;;;5055138;28;20074;-51
2023/03/23 13:26:49;;;;;;;48.15;5.38;;;;;;;;;;5073581;28;20025;-52
2023/03/23 13:29:14;;;;;;;18.33;3.13;;;;;;;;;;5054646;28;20046;-52
2023/03/23 13:31:41;;;;;;;28.63;3.75;;;;;;;;;;5072562;28;20465;-52
2023/03/23 13:34:15;;;;;;;25.50;3.75;;;;;;;;;;5055054;28;20077;-51
2023/03/23 13:36:42;;;;;;;20.15;3.50;;;;;;;;;;5072452;28;20397;-52
2023/03/23 13:39:41;;;;;;;57.15;7.25;;;;;;;;;;5071854;28;20027;-51
2023/03/23 13:42:09;;;;;;;22.83;3.58;;;;;;;;;;4999899;28;20059;-52
2023/03/23 13:44:45;;;;;;;17.52;3.35;;;;;;;;;;5072035;28;20107;-51
2023/03/23 13:47:32;;;;;;;41.65;5.68;;;;;;;;;;5071863;28;20450;-58
2023/03/23 13:49:57;;;;;;;27.27;3.90;;;;;;;;;;5054234;28;20025;-51
2023/03/23 13:52:25;;;;;;;20.65;2.78;;;;;;;;;;5071889;28;20017;-52
2023/03/23 13:54:51;;;;;;;13.50;2.95;;;;;;;;;;5071936;28;20017;-51
2023/03/23 13:57:26;;;;;;;84.18;7.38;;;;;;;;;;5071509;28;20016;-51
2023/03/23 13:59:59;;;;;;;17.20;3.75;;;;;;;;;;5053973;28;20024;-52
2023/03/23 14:02:30;;;;;;;19.75;2.85;;;;;;;;;;5053743;28;20106;-52
2023/03/23 14:04:56;;;;;;;24.52;5.05;;;;;;;;;;5053102;28;20069;-51
2023/03/23 14:07:24;;;;;;;13.27;2.90;;;;;;;;;;5071408;28;20028;-51
2023/03/23 14:09:50;;;;;;;19.77;3.30;;;;;;;;;;5071528;28;20021;-52
2023/03/23 14:12:20;;;;;;;12.35;2.75;;;;;;;;;;5071710;28;20020;-51
2023/03/23 14:14:51;;;;;;;30.60;5.25;;;;;;;;;;5053464;28;20134;-52
2023/03/23 14:17:18;;;;;;;14.65;3.20;;;;;;;;;;5071019;28;20027;-51
2023/03/23 14:19:50;;;;;;;21.77;4.45;;;;;;;;;;5072250;28;20063;-51
2023/03/23 14:22:28;;;;;;;15.55;3.55;;;;;;;;;;5091388;28;20051;-51
2023/03/23 14:25:00;;;;;;;15.30;2.42;;;;;;;;;;5092238;28;20060;-51
2023/03/23 14:27:26;;;;;;;45.95;5.20;;;;;;;;;;5091379;28;20016;-51
2023/03/23 14:29:59;;;;;;;20.55;3.95;;;;;;;;;;5091792;28;20079;-52
2023/03/23 14:32:27;;;;;;;24.15;3.45;;;;;;;;;;5090028;28;20059;-51
2023/03/23 14:34:53;;;;;;;32.05;3.47;;;;;;;;;;5090277;28;20020;-52
2023/03/23 14:37:20;;;;;;;19.65;4.00;;;;;;;;;;5090205;28;20058;-53
2023/03/23 14:39:50;;;;;;;17.63;2.72;;;;;;;;;;5089894;28;20129;-51